createdAt,value
2023-04-01T00:04:25.504Z,0.04
2023-04-01T00:09:24.660Z,0.04
2023-04-01T00:14:24.957Z,0.04
2023-04-01T00:24:24.152Z,0.04
2023-04-01T00:29:24.101Z,0.04
2023-04-01T00:34:25.329Z,0.04
2023-04-01T00:39:23.010Z,0.04
2023-04-01T00:44:22.570Z,0.04
2023-04-01T00:49:21.692Z,0.04
2023-04-01T00:54:21.775Z,0.04
2023-04-01T01:01:05.983Z,0.04
2023-04-01T01:06:00.376Z,0.04
2023-04-01T01:10:49.607Z,0.04
2023-04-01T01:15:49.607Z,0.04
2023-04-01T01:20:58.881Z,0.04
2023-04-01T01:25:48.666Z,0.04
2023-04-01T01:35:49.334Z,0.04
2023-04-01T01:40:49.910Z,0.04
2023-04-01T01:45:47.102Z,0.04
2023-04-01T01:50:47.009Z,0.04
2023-04-01T01:55:48.126Z,0.04
2023-04-01T02:19:47.293Z,0.04
2023-04-01T02:29:46.405Z,0.04
2023-04-01T03:59:27.422Z,0.04
2023-04-01T04:09:25.041Z,0.04
2023-04-01T04:14:24.858Z,0.04
2023-04-01T04:19:24.285Z,0.04
2023-04-01T04:24:23.509Z,0.04
2023-04-01T04:29:24.286Z,0.04
2023-04-01T04:49:20.367Z,0.06
2023-04-01T04:54:23.536Z,0.08
2023-04-01T04:59:20.017Z,0.11
2023-04-01T05:09:17.351Z,0.23
2023-04-01T05:14:17.247Z,0.26
2023-04-01T05:19:16.749Z,0.27
2023-04-01T05:24:16.380Z,0.39
2023-04-01T05:29:16.171Z,0.49
2023-04-01T05:34:15.254Z,0.69
2023-04-01T05:39:16.714Z,0.65
2023-04-01T05:44:15.537Z,0.8
2023-04-01T05:49:16.319Z,1.23
2023-04-01T05:54:13.778Z,1.16
2023-04-01T06:01:16.693Z,1.26
2023-04-01T06:05:35.093Z,1.51
2023-04-01T06:10:34.664Z,1.45
2023-04-01T06:15:33.754Z,1.67
2023-04-01T06:20:33.191Z,1.84
2023-04-01T06:25:34.935Z,1.87
2023-04-01T06:30:30.340Z,2.53
2023-04-01T06:35:30.777Z,3.14
2023-04-01T06:40:29.666Z,2.63
2023-04-01T06:45:29.828Z,2.92
2023-04-01T06:50:27.228Z,3.72
2023-04-01T06:55:26.899Z,4.18
2023-04-01T08:04:29.538Z,4.59
2023-04-01T08:09:30.310Z,4.56
2023-04-01T08:14:26.181Z,5.07
2023-04-01T08:19:26.277Z,6.61
2023-04-01T08:24:27.849Z,8.09
2023-04-01T08:29:26.250Z,7.87
2023-04-01T08:34:23.667Z,7.92
2023-04-01T08:39:23.740Z,7.99
2023-04-01T08:44:22.989Z,8.77
2023-04-01T08:49:22.899Z,11.35
2023-04-01T08:54:22.267Z,14.03
2023-04-01T10:01:01.466Z,8.64
2023-04-01T10:05:47.008Z,10.79
2023-04-01T10:10:45.770Z,8.77
2023-04-01T10:15:46.613Z,9.21
2023-04-01T10:20:45.878Z,8.63
2023-04-01T10:25:38.032Z,9.5
2023-04-01T10:30:33.230Z,10.13
2023-04-01T10:35:33.769Z,7.96
2023-04-01T10:40:32.397Z,9.11
2023-04-01T10:45:31.962Z,10.04
2023-04-01T10:50:30.947Z,11.11
2023-04-01T10:55:30.266Z,8.22
2023-04-01T11:04:54.315Z,10.14
2023-04-01T12:04:32.981Z,7.59
2023-04-01T12:09:32.582Z,7.61
2023-04-01T12:14:29.093Z,8.27
2023-04-01T12:19:29.645Z,7.13
2023-04-01T12:24:29.831Z,6.59
2023-04-01T12:29:29.400Z,5.46
2023-04-01T12:34:29.021Z,4.85
2023-04-01T12:39:28.124Z,7.16
2023-04-01T12:44:28.131Z,7.24
2023-04-01T12:49:29.384Z,7.24
2023-04-01T12:54:25.487Z,7.79
2023-04-01T13:04:26.086Z,6.73
2023-04-01T13:09:25.182Z,6.36
2023-04-01T13:14:35.741Z,6.83
2023-04-01T13:19:22.635Z,6.67
2023-04-01T13:24:22.090Z,5.96
2023-04-01T13:29:21.749Z,6.6
2023-04-01T13:34:20.839Z,5.63
2023-04-01T13:39:20.469Z,4.53
2023-04-01T13:44:19.782Z,5.16
2023-04-01T13:49:19.288Z,5.21
2023-04-01T14:01:05.704Z,6.87
2023-04-01T14:06:03.817Z,7.7
2023-04-01T14:10:46.453Z,6.42
2023-04-01T14:15:46.709Z,6.82
2023-04-01T14:20:46.928Z,5.86
2023-04-01T14:25:36.630Z,5.93
2023-04-01T14:30:34.121Z,6.03
2023-04-01T14:35:34.050Z,6.59
2023-04-01T14:40:33.149Z,5.04
2023-04-01T14:45:33.017Z,4.01
2023-04-01T14:50:34.086Z,3.56
2023-04-01T14:55:31.208Z,5.47
2023-04-01T14:59:49.848Z,4.73
2023-04-01T17:04:26.135Z,1.17
2023-04-01T17:09:25.733Z,1.09
2023-04-01T17:14:25.805Z,1.05
2023-04-01T17:19:23.541Z,0.94
2023-04-01T17:24:23.455Z,0.84
2023-04-01T17:29:22.978Z,0.65
2023-04-01T17:34:22.204Z,0.52
2023-04-01T17:39:21.556Z,0.43
2023-04-01T17:44:21.133Z,0.35
2023-04-01T17:49:21.689Z,0.26
2023-04-01T17:54:20.920Z,0.26
2023-04-01T18:04:19.421Z,0.12
2023-04-01T18:09:18.354Z,0.08
2023-04-01T18:14:17.978Z,0.06
2023-04-01T18:19:17.718Z,0.05
2023-04-01T18:29:15.404Z,0.04
2023-04-01T18:34:14.757Z,0.04
2023-04-01T18:39:14.832Z,0.04
2023-04-01T18:44:13.523Z,0.04
2023-04-01T18:49:13.786Z,0.04
2023-04-01T18:54:12.713Z,0.04
2023-04-01T19:01:00.493Z,0.04
2023-04-01T19:05:34.697Z,0.04
2023-04-01T19:10:35.811Z,0.04
2023-04-01T19:15:36.275Z,0.04
2023-04-01T19:20:33.969Z,0.04
2023-04-01T19:26:26.314Z,0.04
2023-04-01T19:30:33.690Z,0.04
2023-04-01T19:35:32.901Z,0.04
2023-04-01T19:40:33.320Z,0.04
2023-04-01T19:45:31.949Z,0.04
2023-04-01T19:50:33.853Z,0.04
2023-04-01T19:55:28.938Z,0.04
2023-04-01T20:04:48.730Z,0.04
2023-04-01T20:09:46.973Z,0.04
2023-04-01T20:14:47.276Z,0.04
2023-04-01T20:19:46.938Z,0.04
2023-04-01T20:24:47.917Z,0.04
2023-04-01T20:29:34.936Z,0.04
2023-04-01T20:34:34.099Z,0.04
2023-04-01T20:39:34.202Z,0.04
2023-04-01T20:44:31.903Z,0.04
2023-04-01T20:49:31.469Z,0.04
2023-04-01T20:54:30.781Z,0.04
